Time;durP1;ratioP1;P1;durP2;ratioP2;P2;SDS_P1;SDS_P2;PMS_P1;PMS_P2;Temp;Humidity;BMP_temperature;BMP_pressure;BME280_temperature;BME280_humidity;BME280_pressure;Samples;Min_cycle;Max_cycle;Signal;HPM_P1;HPM_P2
2022/08/01 00:01:56;;;;;;;17.33;6.67;;;18.30;99.90;;;;;;4955823;29;20106;-77
2022/08/01 00:04:22;;;;;;;17.67;6.60;;;18.30;99.90;;;;;;4956793;29;20051;-80
2022/08/01 00:06:48;;;;;;;12.57;6.00;;;18.30;99.90;;;;;;4957160;28;20055;-76
2022/08/01 00:09:13;;;;;;;15.60;6.30;;;18.20;99.90;;;;;;4957238;28;20082;-76
2022/08/01 00:11:39;;;;;;;14.97;6.50;;;18.20;99.90;;;;;;4957035;28;20346;-76
2022/08/01 00:14:05;;;;;;;16.47;7.13;;;18.20;99.90;;;;;;4955424;29;20043;-77
2022/08/01 00:16:30;;;;;;;16.47;7.73;;;18.10;99.90;;;;;;4955541;29;20376;-79
2022/08/01 00:18:56;;;;;;;15.87;7.63;;;18.10;99.90;;;;;;4956343;28;20209;-76
2022/08/01 00:21:22;;;;;;;20.77;8.67;;;18.10;99.90;;;;;;4956395;28;20126;-80
2022/08/01 00:23:48;;;;;;;16.73;7.95;;;18.10;99.90;;;;;;4956417;28;20094;-78
2022/08/01 00:26:14;;;;;;;19.70;8.63;;;18.10;99.90;;;;;;4956852;29;20043;-77
2022/08/01 00:28:41;;;;;;;18.83;7.70;;;18.10;99.90;;;;;;4956663;29;20055;-78
2022/08/01 00:31:07;;;;;;;19.20;7.93;;;18.10;99.90;;;;;;4954652;29;20047;-76
2022/08/01 00:33:33;;;;;;;18.90;7.72;;;18.10;99.90;;;;;;4955529;29;20047;-75
2022/08/01 00:35:58;;;;;;;16.07;7.07;;;18.10;99.90;;;;;;4954301;29;20074;-74
2022/08/01 00:38:24;;;;;;;17.80;7.90;;;18.10;99.90;;;;;;4938675;29;20082;-78
2022/08/01 00:40:50;;;;;;;23.37;8.97;;;18.10;99.90;;;;;;4954583;29;20051;-74
2022/08/01 00:43:16;;;;;;;16.70;7.83;;;18.10;99.90;;;;;;4955391;29;20047;-76
2022/08/01 00:45:42;;;;;;;16.00;8.17;;;18.10;99.90;;;;;;4955243;29;20118;-75
2022/08/01 00:48:08;;;;;;;18.93;8.33;;;18.10;99.90;;;;;;4938361;29;20071;-76
2022/08/01 00:50:34;;;;;;;17.50;8.23;;;18.10;99.90;;;;;;4955447;29;20511;-73
2022/08/01 00:53:00;;;;;;;15.98;8.23;;;18.10;99.90;;;;;;4954952;28;20063;-74
2022/08/01 00:55:30;;;;;;;18.70;8.20;;;18.10;99.90;;;;;;4953704;29;20047;-77
2022/08/01 00:57:57;;;;;;;16.35;7.80;;;18.10;99.90;;;;;;4955307;29;20097;-76
2022/08/01 01:00:23;;;;;;;17.27;7.22;;;18.20;99.90;;;;;;4953967;29;20395;-74
2022/08/01 01:02:49;;;;;;;17.93;8.33;;;18.10;99.90;;;;;;4954005;29;20138;-75
2022/08/01 01:05:15;;;;;;;17.33;7.10;;;18.10;99.90;;;;;;4954230;29;20106;-74
2022/08/01 01:08:01;;;;;;;16.30;7.57;;;18.10;99.90;;;;;;4953605;29;20571;-74
2022/08/01 01:10:51;;;;;;;14.23;7.55;;;18.20;99.90;;;;;;4954077;28;20055;-80
2022/08/01 01:13:30;;;;;;;18.00;7.63;;;18.20;99.90;;;;;;4953754;29;20051;-74
2022/08/01 01:16:01;;;;;;;16.98;7.35;;;18.10;99.90;;;;;;4953633;29;20083;-75
2022/08/01 01:18:35;;;;;;;17.23;7.40;;;18.10;99.90;;;;;;4953568;29;20061;-74
2022/08/01 01:21:08;;;;;;;16.23;7.97;;;18.10;99.90;;;;;;4954489;29;20314;-74
2022/08/01 01:23:55;;;;;;;21.05;7.88;;;18.10;99.90;;;;;;4953450;29;20050;-75
2022/08/01 01:26:47;;;;;;;18.23;7.57;;;18.20;99.90;;;;;;4937759;29;20062;-74
2022/08/01 01:29:17;;;;;;;15.55;7.25;;;18.10;99.90;;;;;;4938456;29;20115;-73
2022/08/01 01:31:55;;;;;;;14.18;6.57;;;18.10;99.90;;;;;;4954530;29;20082;-74
2022/08/01 01:34:22;;;;;;;19.38;7.35;;;18.00;99.90;;;;;;4953660;29;20106;-74
2022/08/01 01:36:51;;;;;;;13.25;6.72;;;18.10;99.90;;;;;;4954717;29;20403;-75
2022/08/01 01:39:19;;;;;;;15.45;6.90;;;18.00;99.90;;;;;;4954479;29;20047;-74
2022/08/01 01:41:47;;;;;;;14.75;6.63;;;18.10;99.90;;;;;;4953847;29;20424;-75
2022/08/01 01:44:15;;;;;;;13.18;6.25;;;18.10;99.90;;;;;;4952944;29;20058;-73
2022/08/01 01:46:42;;;;;;;17.42;7.00;;;18.10;99.90;;;;;;4954913;28;20055;-74
2022/08/01 01:49:12;;;;;;;11.65;6.28;;;18.10;99.90;;;;;;4937462;29;20062;-73
2022/08/01 01:51:39;;;;;;;16.48;6.30;;;18.10;99.90;;;;;;4953063;29;20055;-74
2022/08/01 01:54:08;;;;;;;15.45;6.53;;;18.10;99.90;;;;;;4954607;29;20051;-73
2022/08/01 01:56:48;;;;;;;13.07;6.65;;;18.10;99.90;;;;;;4954502;28;20086;-74
2022/08/01 01:59:19;;;;;;;13.02;6.50;;;18.10;99.90;;;;;;4953126;29;20482;-74
2022/08/01 02:01:48;;;;;;;14.55;6.60;;;18.10;99.90;;;;;;4954229;28;20050;-73
2022/08/01 02:04:14;;;;;;;14.90;6.63;;;18.10;99.90;;;;;;4954321;28;20039;-73
2022/08/01 02:06:41;;;;;;;14.52;7.32;;;18.10;99.90;;;;;;4952710;29;20051;-74
2022/08/01 02:09:09;;;;;;;14.02;6.85;;;18.10;99.90;;;;;;4954252;29;20055;-74
2022/08/01 02:11:37;;;;;;;17.98;7.22;;;18.10;99.90;;;;;;4954120;28;20043;-73
2022/08/01 02:14:04;;;;;;;19.77;7.55;;;18.10;99.90;;;;;;4952985;29;20130;-73
2022/08/01 02:16:33;;;;;;;;;;;18.10;99.90;;;;;;4953343;29;20053;-73
2022/08/01 02:18:59;;;;;;;21.17;7.38;;;18.10;99.90;;;;;;4953719;29;19926;-74
2022/08/01 02:21:37;;;;;;;15.88;7.20;;;18.10;99.90;;;;;;4954482;28;20047;-76
2022/08/01 02:24:34;;;;;;;16.75;7.15;;;18.10;99.90;;;;;;4957085;29;20117;-73
2022/08/01 02:27:04;;;;;;;17.48;7.38;;;18.10;99.90;;;;;;4940584;29;20055;-74
2022/08/01 02:29:39;;;;;;;15.90;6.85;;;18.10;99.90;;;;;;4957146;29;20063;-75
2022/08/01 02:32:06;;;;;;;14.20;7.03;;;18.10;99.90;;;;;;4958476;28;20067;-73
2022/08/01 02:34:34;;;;;;;16.70;6.97;;;17.90;99.90;;;;;;4956553;29;20051;-75
2022/08/01 02:37:01;;;;;;;15.27;7.45;;;17.90;99.90;;;;;;4958381;28;20048;-76
2022/08/01 02:39:28;;;;;;;;;;;17.90;99.90;;;;;;4941161;29;20139;-79
2022/08/01 02:41:58;;;;;;;13.25;6.40;;;17.80;99.90;;;;;;4958261;29;20035;-79
2022/08/01 02:44:29;;;;;;;11.18;5.30;;;17.70;99.90;;;;;;4958481;28;20194;-79
2022/08/01 02:47:02;;;;;;;12.77;5.63;;;17.70;99.90;;;;;;4957694;29;20066;-78
2022/08/01 02:49:32;;;;;;;12.98;5.65;;;17.60;99.90;;;;;;4956723;29;20113;-77
2022/08/01 02:52:01;;;;;;;11.20;4.95;;;17.60;99.90;;;;;;4958313;29;20483;-79
2022/08/01 02:54:30;;;;;;;13.15;5.50;;;17.60;99.90;;;;;;4958041;28;20447;-77
2022/08/01 02:56:57;;;;;;;14.63;5.18;;;17.60;99.90;;;;;;4958173;28;20061;-77
2022/08/01 02:59:25;;;;;;;;;;;17.50;99.90;;;;;;4957010;29;20511;-77
2022/08/01 03:01:56;;;;;;;9.93;4.63;;;17.60;99.90;;;;;;4956432;28;19945;-77
2022/08/01 03:04:24;;;;;;;11.80;5.03;;;17.60;99.90;;;;;;4958180;28;20078;-78
2022/08/01 03:06:52;;;;;;;12.70;5.82;;;17.50;99.90;;;;;;4956418;29;20235;-78
2022/08/01 03:09:18;;;;;;;13.15;5.78;;;17.60;99.90;;;;;;4958374;28;20058;-79
2022/08/01 03:11:46;;;;;;;12.70;5.80;;;17.60;99.90;;;;;;4958122;28;20086;-79
2022/08/01 03:14:14;;;;;;;10.93;5.22;;;17.50;99.90;;;;;;4956324;29;20062;-77
2022/08/01 03:16:41;;;;;;;13.00;5.70;;;17.60;99.90;;;;;;4957921;29;20055;-77
2022/08/01 03:19:09;;;;;;;12.82;6.00;;;17.60;99.90;;;;;;4956785;29;20047;-78
2022/08/01 03:21:38;;;;;;;14.50;6.22;;;17.60;99.90;;;;;;4942134;29;20055;-78
2022/08/01 03:24:05;;;;;;;9.68;5.20;;;17.60;99.90;;;;;;4940127;29;20087;-79
2022/08/01 03:26:33;;;;;;;11.43;4.53;;;17.60;99.90;;;;;;4957568;28;20062;-76
2022/08/01 03:29:08;;;;;;;11.18;5.10;;;17.60;99.90;;;;;;4956961;28;20070;-74
2022/08/01 03:31:38;;;;;;;8.77;4.07;;;17.50;99.90;;;;;;4955609;29;20058;-74
2022/08/01 03:34:06;;;;;;;8.50;3.72;;;17.40;99.90;;;;;;4955525;28;20090;-78
2022/08/01 03:36:34;;;;;;;8.70;4.03;;;17.30;99.90;;;;;;4955457;29;20102;-79
2022/08/01 03:39:03;;;;;;;9.88;4.22;;;17.20;99.90;;;;;;4956750;29;20122;-80
2022/08/01 03:41:37;;;;;;;12.48;3.40;;;17.20;99.90;;;;;;4956723;29;20086;-75
2022/08/01 03:44:16;;;;;;;9.90;3.15;;;17.10;99.90;;;;;;4957251;28;20074;-77
2022/08/01 03:46:51;;;;;;;8.50;3.40;;;17.10;99.90;;;;;;4956095;29;20050;-78
2022/08/01 03:49:23;;;;;;;7.13;2.93;;;17.10;99.90;;;;;;4955797;29;20102;-77
2022/08/01 03:51:51;;;;;;;9.32;3.25;;;17.00;99.90;;;;;;4955747;29;20059;-80
2022/08/01 03:54:21;;;;;;;7.35;2.30;;;17.00;99.90;;;;;;4955437;29;20453;-77
2022/08/01 03:56:49;;;;;;;12.23;2.72;;;17.00;99.90;;;;;;4939004;29;20050;-76
2022/08/01 03:59:17;;;;;;;9.00;3.03;;;17.00;99.90;;;;;;4955368;29;20055;-75
2022/08/01 04:01:44;;;;;;;7.82;2.47;;;17.00;99.90;;;;;;4956357;28;20051;-77
2022/08/01 04:04:10;;;;;;;10.95;2.53;;;17.00;99.90;;;;;;4955231;29;20448;-79
2022/08/01 04:06:41;;;;;;;6.50;2.30;;;17.00;99.90;;;;;;4955119;29;20388;-78
2022/08/01 04:09:07;;;;;;;10.88;2.83;;;17.00;99.90;;;;;;4954717;29;20051;-79
2022/08/01 04:11:33;;;;;;;;;;;17.00;99.90;;;;;;4956756;29;20047;-76
2022/08/01 04:13:59;;;;;;;6.07;2.70;;;17.00;99.90;;;;;;4955964;29;19929;-79
2022/08/01 04:16:25;;;;;;;7.30;2.60;;;17.00;99.90;;;;;;4955106;29;20161;-76
2022/08/01 04:18:51;;;;;;;11.03;2.30;;;17.00;99.90;;;;;;4956011;29;20130;-74
2022/08/01 04:21:21;;;;;;;10.23;2.60;;;17.00;99.90;;;;;;4954656;29;20153;-77
2022/08/01 04:23:49;;;;;;;11.05;2.65;;;17.10;99.90;;;;;;4955151;29;20043;-78
2022/08/01 04:26:16;;;;;;;7.82;2.47;;;17.10;99.90;;;;;;4954286;29;20067;-77
2022/08/01 04:28:42;;;;;;;;;;;17.10;99.90;;;;;;4954808;29;20087;-78
2022/08/01 04:31:11;;;;;;;9.13;2.70;;;17.10;99.90;;;;;;4954703;29;19934;-77
2022/08/01 04:33:40;;;;;;;10.93;3.10;;;17.10;99.90;;;;;;4954493;29;20126;-79
2022/08/01 04:36:09;;;;;;;12.13;2.60;;;17.10;99.90;;;;;;4955640;29;20051;-77
2022/08/01 04:38:38;;;;;;;9.25;2.50;;;17.10;99.90;;;;;;4955547;28;20151;-76
2022/08/01 04:41:06;;;;;;;7.35;2.30;;;17.10;99.90;;;;;;4954819;29;20421;-76
2022/08/01 04:43:32;;;;;;;6.88;2.58;;;17.10;99.90;;;;;;4955375;29;20054;-74
2022/08/01 04:45:59;;;;;;;11.05;2.70;;;17.10;99.90;;;;;;4954540;28;20101;-76
2022/08/01 04:48:25;;;;;;;12.35;2.75;;;17.20;99.90;;;;;;4938230;29;20058;-75
2022/08/01 04:50:51;;;;;;;9.95;2.95;;;17.10;99.90;;;;;;4954607;29;20129;-80
2022/08/01 04:53:18;;;;;;;11.17;3.07;;;17.10;99.90;;;;;;4955611;29;20102;-75
2022/08/01 04:55:48;;;;;;;10.15;3.28;;;17.20;99.90;;;;;;4938504;29;20449;-74
2022/08/01 04:58:17;;;;;;;8.75;2.70;;;17.20;99.90;;;;;;4938279;29;20085;-74
2022/08/01 05:00:43;;;;;;;10.07;2.95;;;17.20;99.90;;;;;;4953674;29;20047;-73
2022/08/01 05:03:08;;;;;;;9.53;2.47;;;17.20;99.90;;;;;;4953742;29;20054;-74
2022/08/01 05:05:34;;;;;;;12.00;3.20;;;17.20;99.90;;;;;;4954119;29;20059;-72
2022/08/01 05:08:00;;;;;;;12.10;3.60;;;17.30;99.90;;;;;;4937625;29;20498;-75
2022/08/01 05:10:27;;;;;;;12.30;3.00;;;17.30;99.90;;;;;;4954035;29;20491;-75
2022/08/01 05:12:52;;;;;;;14.27;3.13;;;17.40;99.90;;;;;;4953851;29;20309;-75
2022/08/01 05:15:18;;;;;;;9.30;3.25;;;17.40;99.90;;;;;;4954040;29;20307;-74
2022/08/01 05:17:44;;;;;;;10.63;3.50;;;17.40;99.90;;;;;;4955514;28;20039;-75
2022/08/01 05:20:11;;;;;;;9.10;3.33;;;17.40;99.90;;;;;;4954652;29;20066;-73
2022/08/01 05:22:38;;;;;;;14.95;3.70;;;17.40;99.90;;;;;;4954671;29;20070;-74
2022/08/01 05:25:04;;;;;;;13.27;4.07;;;17.50;99.90;;;;;;4955074;29;20095;-73
2022/08/01 05:27:31;;;;;;;17.42;4.32;;;17.40;99.90;;;;;;4961315;29;20428;-73
2022/08/01 05:29:57;;;;;;;14.88;3.70;;;17.40;99.90;;;;;;4948300;29;20059;-74
2022/08/01 05:32:22;;;;;;;16.10;3.88;;;17.40;99.90;;;;;;4948858;29;20082;-77
2022/08/01 05:34:48;;;;;;;12.27;3.40;;;17.50;99.90;;;;;;4969864;29;20067;-73
2022/08/01 05:37:14;;;;;;;11.70;3.33;;;17.40;99.90;;;;;;4959514;29;20058;-73
2022/08/01 05:39:40;;;;;;;17.23;3.50;;;17.50;99.90;;;;;;4957224;29;20055;-73
2022/08/01 05:42:06;;;;;;;12.63;3.17;;;17.50;99.90;;;;;;4957904;29;20435;-74
2022/08/01 05:44:31;;;;;;;12.70;2.97;;;17.50;99.90;;;;;;4925508;29;20142;-74
2022/08/01 05:47:00;;;;;;;10.57;2.93;;;17.50;99.90;;;;;;4939014;29;20122;-73
2022/08/01 05:49:26;;;;;;;12.48;3.53;;;17.50;99.90;;;;;;4937876;29;20373;-75
2022/08/01 05:51:52;;;;;;;10.77;3.23;;;17.50;99.90;;;;;;4952957;29;20142;-72
2022/08/01 05:54:18;;;;;;;13.65;3.40;;;17.50;99.90;;;;;;4953319;29;20424;-74
2022/08/01 05:56:44;;;;;;;12.85;3.63;;;17.40;99.90;;;;;;4936928;29;20098;-73
2022/08/01 05:59:09;;;;;;;16.33;3.40;;;17.30;99.90;;;;;;4953122;29;20093;-74
2022/08/01 06:01:35;;;;;;;13.87;2.93;;;17.30;99.90;;;;;;4953379;29;20189;-75
2022/08/01 06:04:01;;;;;;;14.35;3.38;;;17.30;99.90;;;;;;4954466;29;20192;-72
2022/08/01 06:06:26;;;;;;;11.25;2.58;;;17.30;99.90;;;;;;4954268;28;20111;-76
2022/08/01 06:08:52;;;;;;;13.70;3.40;;;17.20;99.90;;;;;;4954309;29;20054;-73
2022/08/01 06:11:18;;;;;;;9.68;2.60;;;17.20;99.90;;;;;;4937614;29;20051;-72
2022/08/01 06:13:44;;;;;;;13.67;2.60;;;17.30;99.90;;;;;;4954915;28;20047;-73
2022/08/01 06:16:09;;;;;;;8.80;2.47;;;17.20;99.90;;;;;;4954757;29;20141;-73
2022/08/01 06:18:35;;;;;;;13.43;2.28;;;17.30;99.90;;;;;;4954703;28;20129;-73
2022/08/01 06:21:01;;;;;;;17.60;2.33;;;17.30;99.90;;;;;;4937519;29;20043;-78
2022/08/01 06:23:26;;;;;;;14.90;3.37;;;17.30;99.90;;;;;;4954693;29;20063;-73
2022/08/01 06:25:54;;;;;;;11.57;2.77;;;17.30;99.90;;;;;;4954702;29;20055;-72
2022/08/01 06:28:20;;;;;;;11.73;2.50;;;17.30;99.90;;;;;;4955308;29;20059;-74
2022/08/01 06:30:46;;;;;;;12.85;2.67;;;17.30;99.90;;;;;;4953468;29;20063;-74
2022/08/01 06:33:12;;;;;;;18.83;3.80;;;17.30;99.90;;;;;;4938463;29;20051;-74
2022/08/01 06:35:37;;;;;;;13.50;2.57;;;17.20;99.90;;;;;;4938142;29;20073;-70
2022/08/01 06:38:03;;;;;;;11.18;2.67;;;17.20;99.90;;;;;;4954644;28;20065;-74
2022/08/01 06:40:29;;;;;;;14.07;2.80;;;17.20;99.90;;;;;;4953577;29;20134;-76
2022/08/01 06:42:55;;;;;;;17.08;3.03;;;17.30;99.90;;;;;;4954646;29;20043;-74
2022/08/01 06:45:25;;;;;;;15.07;2.53;;;17.30;99.90;;;;;;4954288;28;20035;-73
2022/08/01 06:47:51;;;;;;;13.45;2.75;;;17.20;99.90;;;;;;4954082;28;20047;-73
2022/08/01 06:50:20;;;;;;;12.53;2.33;;;17.30;99.90;;;;;;4953977;28;20105;-73
2022/08/01 06:52:46;;;;;;;17.55;3.03;;;17.30;99.90;;;;;;4952455;29;20137;-73
2022/08/01 06:55:11;;;;;;;17.03;2.70;;;17.40;99.90;;;;;;4952976;29;20190;-72
2022/08/01 06:57:48;;;;;;;12.40;2.47;;;17.40;99.90;;;;;;4953859;29;20500;-73
2022/08/01 07:00:16;;;;;;;;;;;17.40;99.90;;;;;;4953405;29;20055;-73
2022/08/01 07:02:42;;;;;;;14.50;2.80;;;17.20;99.90;;;;;;4953981;29;19922;-73
2022/08/01 07:05:09;;;;;;;15.70;2.90;;;17.30;99.90;;;;;;4952642;29;20043;-74
2022/08/01 07:07:34;;;;;;;;;;;17.40;99.90;;;;;;4953915;28;20134;-73
2022/08/01 07:10:00;;;;;;;21.17;2.93;;;17.40;99.90;;;;;;4956523;29;19962;-72
2022/08/01 07:12:26;;;;;;;21.23;3.23;;;17.40;99.90;;;;;;4957768;28;20392;-73
2022/08/01 07:14:51;;;;;;;19.80;3.83;;;17.40;99.90;;;;;;4957946;28;20053;-72
2022/08/01 07:17:20;;;;;;;15.67;3.37;;;17.40;99.90;;;;;;4957239;29;20092;-74
2022/08/01 07:19:46;;;;;;;20.38;3.00;;;17.50;99.90;;;;;;4956344;29;20047;-74
2022/08/01 07:22:11;;;;;;;18.67;3.60;;;17.70;99.90;;;;;;4957026;29;20134;-73
2022/08/01 07:24:37;;;;;;;23.53;3.57;;;17.80;99.90;;;;;;4957125;28;20055;-71
2022/08/01 07:27:03;;;;;;;19.03;3.03;;;17.90;99.90;;;;;;4955825;29;20047;-74
2022/08/01 07:29:29;;;;;;;14.10;3.17;;;18.10;99.90;;;;;;4955470;29;20171;-74
2022/08/01 07:31:56;;;;;;;19.70;3.75;;;18.20;99.90;;;;;;4955578;29;20051;-74
2022/08/01 07:34:23;;;;;;;18.95;3.38;;;18.40;99.90;;;;;;4955469;29;20043;-73
2022/08/01 07:36:49;;;;;;;24.52;3.42;;;18.40;99.90;;;;;;4957427;29;20047;-72
2022/08/01 07:39:15;;;;;;;13.15;2.78;;;18.40;99.90;;;;;;4955439;29;20531;-72
2022/08/01 07:41:41;;;;;;;23.47;3.50;;;18.40;99.90;;;;;;4956719;29;20082;-72
2022/08/01 07:44:07;;;;;;;18.90;3.03;;;18.50;99.90;;;;;;4956735;29;20098;-72
2022/08/01 07:46:32;;;;;;;22.63;3.47;;;18.60;99.90;;;;;;4955455;29;20563;-71
2022/08/01 07:48:58;;;;;;;20.80;3.10;;;18.60;99.90;;;;;;4955432;29;20047;-72
2022/08/01 07:51:24;;;;;;;19.03;2.60;;;18.60;99.90;;;;;;4955300;29;20095;-80
2022/08/01 07:53:50;;;;;;;17.83;3.03;;;18.50;99.90;;;;;;4956870;28;20113;-72
2022/08/01 07:56:15;;;;;;;23.27;3.13;;;18.50;99.90;;;;;;4956456;29;20109;-73
2022/08/01 07:58:41;;;;;;;21.00;2.30;;;18.40;99.90;;;;;;4955511;29;20048;-74
2022/08/01 08:01:07;;;;;;;19.60;2.77;;;18.30;99.90;;;;;;4955442;29;20519;-75
2022/08/01 08:03:33;;;;;;;21.20;2.90;;;18.30;99.90;;;;;;4955151;29;20094;-72
2022/08/01 08:05:58;;;;;;;16.80;2.33;;;18.40;99.90;;;;;;4956176;29;20039;-72
2022/08/01 08:08:24;;;;;;;14.43;2.40;;;18.60;99.90;;;;;;4956493;28;20062;-74
2022/08/01 08:10:50;;;;;;;19.63;2.50;;;18.60;99.90;;;;;;4955392;29;20050;-74
2022/08/01 08:13:16;;;;;;;15.63;2.38;;;18.80;99.90;;;;;;4923364;29;20051;-73
2022/08/01 08:15:42;;;;;;;19.23;2.67;;;19.00;99.90;;;;;;4954852;29;20464;-73
2022/08/01 08:18:08;;;;;;;16.95;2.38;;;18.80;99.90;;;;;;4954921;29;20138;-73
2022/08/01 08:20:33;;;;;;;18.23;2.90;;;19.00;99.90;;;;;;4955055;28;20051;-76
2022/08/01 08:22:59;;;;;;;15.03;2.70;;;18.60;99.90;;;;;;4954853;29;20058;-76
2022/08/01 08:25:25;;;;;;;14.90;2.60;;;18.90;99.90;;;;;;4954811;29;20043;-73
2022/08/01 08:27:52;;;;;;;17.33;2.97;;;18.70;99.90;;;;;;4954401;29;20074;-71
2022/08/01 08:30:18;;;;;;;17.33;2.70;;;19.10;99.90;;;;;;4954686;29;20295;-73
2022/08/01 08:32:44;;;;;;;16.07;2.23;;;19.20;99.90;;;;;;4955873;29;20051;-79
2022/08/01 08:35:10;;;;;;;18.10;2.40;;;19.40;99.90;;;;;;4956424;28;20069;-74
2022/08/01 08:37:37;;;;;;;23.80;3.15;;;19.40;99.90;;;;;;4955863;28;20058;-76
2022/08/01 08:40:03;;;;;;;;;;;19.10;99.90;;;;;;4956172;28;20062;-74
2022/08/01 08:42:29;;;;;;;20.00;2.60;;;19.10;99.90;;;;;;4954510;29;19922;-71
2022/08/01 08:44:55;;;;;;;12.07;1.70;;;19.20;99.90;;;;;;4955627;28;20114;-72
2022/08/01 08:47:21;;;;;;;17.23;2.73;;;19.40;99.90;;;;;;4954301;29;20424;-72
2022/08/01 08:49:50;;;;;;;15.95;2.30;;;19.40;99.90;;;;;;4956047;29;20059;-74
2022/08/01 08:52:19;;;;;;;14.98;2.53;;;19.20;99.90;;;;;;4955259;28;20467;-74
2022/08/01 08:54:46;;;;;;;17.13;2.28;;;19.10;99.90;;;;;;4956140;28;20059;-73
2022/08/01 08:57:14;;;;;;;15.65;2.08;;;19.50;99.90;;;;;;4955042;29;20087;-74
2022/08/01 08:59:40;;;;;;;16.98;2.40;;;19.70;99.90;;;;;;4955413;29;20094;-74
2022/08/01 09:02:09;;;;;;;16.15;1.95;;;19.50;99.90;;;;;;4955390;28;20047;-73
2022/08/01 09:04:39;;;;;;;18.02;2.92;;;19.70;99.90;;;;;;4954114;29;20138;-73
2022/08/01 09:07:07;;;;;;;15.98;2.20;;;19.70;99.90;;;;;;4954015;29;20059;-73
2022/08/01 09:09:33;;;;;;;20.38;2.28;;;19.70;99.90;;;;;;4955421;29;20047;-75
2022/08/01 09:11:59;;;;;;;20.48;2.85;;;20.00;99.90;;;;;;4939052;29;20055;-75
2022/08/01 09:14:29;;;;;;;15.63;2.10;;;19.70;99.90;;;;;;4938850;29;20499;-76
2022/08/01 09:17:10;;;;;;;14.88;2.00;;;19.70;99.90;;;;;;4939157;29;20055;-74
2022/08/01 09:19:47;;;;;;;25.63;2.72;;;20.10;99.90;;;;;;4955189;29;20058;-74
2022/08/01 09:22:20;;;;;;;13.95;2.10;;;20.00;99.90;;;;;;4955048;29;20057;-76
2022/08/01 09:25:06;;;;;;;15.38;2.00;;;20.00;99.90;;;;;;4955784;28;20147;-73
2022/08/01 09:27:33;;;;;;;8.98;1.45;;;19.80;99.90;;;;;;4954987;28;20043;-75
2022/08/01 09:30:12;;;;;;;;;;;19.90;99.90;;;;;;4954370;29;20066;-73
2022/08/01 09:32:56;;;;;;;11.18;1.73;;;20.00;99.90;;;;;;4954098;28;19926;-74
2022/08/01 09:35:24;;;;;;;16.85;1.88;;;20.10;99.90;;;;;;4953915;29;20392;-74
2022/08/01 09:37:50;;;;;;;12.38;1.67;;;20.20;99.90;;;;;;4955191;28;20368;-74
2022/08/01 09:40:16;;;;;;;14.07;1.50;;;19.80;99.90;;;;;;4937874;29;20057;-77
2022/08/01 09:42:42;;;;;;;15.53;2.30;;;20.10;99.90;;;;;;4937914;29;20043;-75
2022/08/01 09:45:08;;;;;;;13.13;2.10;;;20.20;99.90;;;;;;4937553;29;20055;-74
2022/08/01 09:47:40;;;;;;;15.73;1.92;;;20.10;99.90;;;;;;4953403;29;20051;-74
2022/08/01 09:50:07;;;;;;;16.30;1.50;;;20.00;99.90;;;;;;4954609;28;20204;-73
2022/08/01 09:52:32;;;;;;;12.35;1.40;;;19.90;99.90;;;;;;4953428;29;20136;-76
2022/08/01 09:55:00;;;;;;;12.17;1.20;;;20.10;99.90;;;;;;4954613;28;20132;-75
2022/08/01 09:57:28;;;;;;;13.35;1.65;;;20.20;99.90;;;;;;4954629;28;20063;-75
2022/08/01 09:59:56;;;;;;;9.85;1.42;;;20.00;99.90;;;;;;4953445;29;20131;-75
2022/08/01 10:02:31;;;;;;;9.55;1.30;;;20.10;99.90;;;;;;4937624;29;20057;-73
2022/08/01 10:04:57;;;;;;;18.05;1.58;;;20.00;99.90;;;;;;4954758;29;20126;-74
2022/08/01 10:07:23;;;;;;;9.80;1.63;;;20.20;99.90;;;;;;4954506;28;20130;-73
2022/08/01 10:09:49;;;;;;;16.37;2.00;;;20.20;99.90;;;;;;4953815;29;20083;-76
2022/08/01 10:12:18;;;;;;;11.65;2.13;;;20.40;99.90;;;;;;4954920;29;20047;-76
2022/08/01 10:14:46;;;;;;;11.13;1.40;;;20.50;99.90;;;;;;4953621;29;20106;-74
2022/08/01 10:17:14;;;;;;;13.23;1.80;;;20.90;99.90;;;;;;4953573;29;20043;-75
2022/08/01 10:19:43;;;;;;;17.02;1.50;;;20.80;99.90;;;;;;4954505;29;20047;-76
2022/08/01 10:22:17;;;;;;;10.68;1.48;;;20.80;99.90;;;;;;4954642;29;20055;-74
2022/08/01 10:24:46;;;;;;;11.02;1.50;;;20.90;99.90;;;;;;4955282;28;20483;-75
2022/08/01 10:27:15;;;;;;;10.07;1.55;;;20.70;99.90;;;;;;4937129;29;20575;-73
2022/08/01 10:29:44;;;;;;;9.65;1.40;;;20.50;99.90;;;;;;4954613;29;20058;-76
2022/08/01 10:32:10;;;;;;;8.82;1.33;;;20.40;99.90;;;;;;4953759;29;20376;-75
2022/08/01 10:34:37;;;;;;;9.07;1.00;;;20.70;99.90;;;;;;4953161;29;20043;-73
2022/08/01 10:37:04;;;;;;;;;;;20.70;99.90;;;;;;4954627;29;20492;-74
2022/08/01 10:39:31;;;;;;;7.90;0.95;;;20.70;99.90;;;;;;4953922;29;19922;-75
2022/08/01 10:41:57;;;;;;;7.13;1.20;;;20.80;99.90;;;;;;4953326;28;20062;-75
2022/08/01 10:44:28;;;;;;;11.80;1.20;;;21.20;99.90;;;;;;4958983;29;20426;-75
2022/08/01 10:47:12;;;;;;;10.10;1.30;;;21.30;99.90;;;;;;4957736;29;20067;-77
2022/08/01 10:50:13;;;;;;;7.78;1.30;;;21.20;99.90;;;;;;4957436;29;20066;-77
2022/08/01 10:52:39;;;;;;;7.10;0.90;;;21.00;99.90;;;;;;4958006;28;20134;-76
2022/08/01 10:55:11;;;;;;;9.23;1.00;;;21.20;99.90;;;;;;4958237;28;20163;-74
2022/08/01 10:57:47;;;;;;;5.38;0.77;;;21.10;99.90;;;;;;4957819;28;20047;-73
2022/08/01 11:00:20;;;;;;;10.50;1.40;;;21.50;99.90;;;;;;4957858;28;20515;-73
2022/08/01 11:03:00;;;;;;;9.40;1.30;;;21.70;99.90;;;;;;4957282;28;20043;-74
2022/08/01 11:05:30;;;;;;;8.43;1.15;;;21.80;99.90;;;;;;4956714;28;20059;-75
2022/08/01 11:08:00;;;;;;;6.18;0.82;;;21.30;99.90;;;;;;4956658;29;20047;-74
2022/08/01 11:10:44;;;;;;;5.07;0.70;;;21.30;99.90;;;;;;4958335;28;20082;-75
2022/08/01 11:13:11;;;;;;;5.15;1.15;;;21.40;99.90;;;;;;4942034;29;20054;-75
2022/08/01 11:15:41;;;;;;;11.25;1.70;;;21.40;99.90;;;;;;4957073;29;20110;-75
2022/08/01 11:18:25;;;;;;;8.70;0.90;;;21.50;99.90;;;;;;4957553;29;20055;-75
2022/08/01 11:20:58;;;;;;;6.53;1.05;;;21.80;99.90;;;;;;4957794;28;20058;-75
2022/08/01 11:23:25;;;;;;;11.55;1.00;;;21.90;99.90;;;;;;4957460;28;20447;-74
2022/08/01 11:25:52;;;;;;;7.40;0.90;;;21.80;99.90;;;;;;4957419;28;20183;-74
2022/08/01 11:28:26;;;;;;;7.13;1.10;;;21.40;99.90;;;;;;4957161;28;20085;-74
2022/08/01 11:31:17;;;;;;;7.22;0.98;;;21.10;99.90;;;;;;4957226;29;20138;-77
2022/08/01 11:33:44;;;;;;;6.45;0.73;;;20.70;99.90;;;;;;4956254;29;20433;-74
2022/08/01 11:36:10;;;;;;;7.20;0.80;;;21.20;99.90;;;;;;4940452;29;20580;-74
2022/08/01 11:38:37;;;;;;;7.33;0.77;;;21.30;99.90;;;;;;4956817;29;20043;-80
2022/08/01 11:41:13;;;;;;;6.68;0.90;;;21.10;99.90;;;;;;4956045;29;20047;-76
2022/08/01 11:44:05;;;;;;;10.88;0.93;;;21.40;99.90;;;;;;4939817;29;20055;-74
2022/08/01 11:47:11;;;;;;;10.90;0.75;;;21.20;99.90;;;;;;4956255;29;20499;-73
2022/08/01 11:49:40;;;;;;;7.07;0.80;;;21.60;99.90;;;;;;4940415;29;20055;-77
2022/08/01 11:52:07;;;;;;;9.25;0.90;;;21.90;99.90;;;;;;4955387;29;20399;-74
2022/08/01 11:55:15;;;;;;;5.60;0.73;;;22.00;99.90;;;;;;4954777;28;20058;-73
2022/08/01 11:57:40;;;;;;;7.20;0.80;;;22.10;99.90;;;;;;4885080;29;20071;-74
2022/08/01 12:00:13;;;;;;;8.90;1.03;;;21.90;99.90;;;;;;4948284;29;20055;-75
2022/08/01 12:02:39;;;;;;;6.50;0.98;;;21.90;99.90;;;;;;4940215;29;20050;-72
2022/08/01 12:05:11;;;;;;;7.93;1.60;;;22.20;99.90;;;;;;4956669;29;20440;-75
2022/08/01 12:07:38;;;;;;;8.35;1.30;;;22.10;99.90;;;;;;4955359;29;20051;-73
2022/08/01 12:10:06;;;;;;;7.10;2.03;;;21.90;99.90;;;;;;4956904;29;20087;-73
2022/08/01 12:12:34;;;;;;;7.10;0.80;;;21.50;99.90;;;;;;4956400;28;20083;-73
2022/08/01 12:15:02;;;;;;;10.05;1.15;;;21.50;99.90;;;;;;4956404;28;20126;-73
2022/08/01 12:17:45;;;;;;;7.03;0.90;;;21.50;99.90;;;;;;4956674;29;20050;-74
2022/08/01 12:20:14;;;;;;;9.45;0.88;;;21.60;99.90;;;;;;4956945;29;20051;-72
2022/08/01 12:22:41;;;;;;;10.73;1.25;;;21.90;99.90;;;;;;4924270;29;20067;-73
2022/08/01 12:25:07;;;;;;;9.95;0.80;;;21.90;99.70;;;;;;4957089;29;20173;-73
2022/08/01 12:27:33;;;;;;;8.32;0.65;;;21.60;99.90;;;;;;4957678;29;20504;-74
2022/08/01 12:29:59;;;;;;;7.70;1.02;;;21.70;99.20;;;;;;4962717;29;20047;-75
2022/08/01 12:32:25;;;;;;;8.07;0.80;;;21.70;99.60;;;;;;4969809;29;20444;-73
2022/08/01 12:34:52;;;;;;;6.80;0.77;;;22.20;99.90;;;;;;4970771;28;20102;-75
2022/08/01 12:37:19;;;;;;;5.90;0.77;;;22.00;98.90;;;;;;4973659;28;20062;-75
2022/08/01 12:39:45;;;;;;;6.28;1.00;;;21.90;99.70;;;;;;4967763;29;20202;-73
2022/08/01 12:42:11;;;;;;;;;;;22.00;99.50;;;;;;4959121;28;20162;-72
2022/08/01 12:44:38;;;;;;;7.75;0.80;;;22.20;99.70;;;;;;4958087;29;20072;-73
2022/08/01 12:47:06;;;;;;;7.88;1.10;;;22.10;99.20;;;;;;4942292;29;20055;-76
2022/08/01 12:49:36;;;;;;;4.68;0.60;;;21.80;99.40;;;;;;4958081;28;20495;-72
2022/08/01 12:52:03;;;;;;;4.57;0.60;;;21.80;98.20;;;;;;4955119;29;20063;-72